Time;durP1;ratioP1;P1;durP2;ratioP2;P2;SDS_P1;SDS_P2;PMS_P1;PMS_P2;Temp;Humidity;BMP_temperature;BMP_pressure;BME280_temperature;BME280_humidity;BME280_pressure;Samples;Min_cycle;Max_cycle;Signal;HPM_P1;HPM_P2
2021/08/20 00:02:14;;;;;;;11.60;4.28;;;;;;;13.11;100.00;100361.38;4956942;29;20026;-80
2021/08/20 00:04:39;;;;;;;9.18;3.53;;;;;;;13.14;100.00;100369.09;4958229;28;20027;-81
2021/08/20 00:07:04;;;;;;;7.38;3.35;;;;;;;13.06;100.00;100370.25;4957053;29;20118;-82
2021/08/20 00:09:30;;;;;;;12.15;3.78;;;;;;;13.10;100.00;100358.84;4958104;28;20400;-81
2021/08/20 00:11:55;;;;;;;8.38;3.50;;;;;;;13.04;100.00;100377.25;4958109;28;20050;-80
2021/08/20 00:14:21;;;;;;;6.63;3.05;;;;;;;13.00;100.00;100375.66;4957859;28;20030;-81
2021/08/20 00:16:47;;;;;;;7.70;3.15;;;;;;;12.95;100.00;100375.78;4958096;28;20027;-80
2021/08/20 00:19:12;;;;;;;11.35;3.58;;;;;;;12.98;100.00;100373.09;4957773;28;20027;-81
2021/08/20 00:21:38;;;;;;;10.90;3.70;;;;;;;13.00;100.00;100366.09;4958059;28;20035;-81
2021/08/20 00:24:06;;;;;;;11.23;3.35;;;;;;;13.03;100.00;100371.19;4956479;29;20020;-81
2021/08/20 00:26:31;;;;;;;11.82;3.88;;;;;;;13.02;100.00;100355.63;4956393;29;20023;-81
2021/08/20 00:28:56;;;;;;;9.32;3.60;;;;;;;13.06;100.00;100362.44;4956489;28;20377;-80
2021/08/20 00:31:22;;;;;;;11.45;4.25;;;;;;;13.03;100.00;100354.72;4957567;29;20078;-81
2021/08/20 00:33:47;;;;;;;11.13;4.00;;;;;;;13.07;100.00;100359.78;4958655;28;20063;-81
2021/08/20 00:36:13;;;;;;;12.23;3.35;;;;;;;13.09;100.00;100363.19;4957247;29;20027;-81
2021/08/20 00:38:38;;;;;;;12.85;4.20;;;;;;;13.10;100.00;100375.31;4959077;28;20031;-81
2021/08/20 00:41:09;;;;;;;11.50;3.85;;;;;;;13.11;100.00;100370.94;4956793;28;20027;-81
2021/08/20 00:43:35;;;;;;;10.75;4.35;;;;;;;13.12;100.00;100360.50;4957239;28;20068;-81
2021/08/20 00:46:01;;;;;;;10.20;4.30;;;;;;;13.10;100.00;100366.66;4955955;29;20058;-81
2021/08/20 00:48:27;;;;;;;13.82;4.40;;;;;;;13.06;100.00;100357.25;4957393;28;20027;-81
2021/08/20 00:51:02;;;;;;;12.10;4.40;;;;;;;13.00;100.00;100365.25;4955596;28;20050;-81
2021/08/20 00:53:29;;;;;;;9.95;4.28;;;;;;;13.00;100.00;100360.03;4955588;29;20020;-81
2021/08/20 00:55:54;;;;;;;8.55;3.85;;;;;;;12.95;100.00;100365.38;4955592;29;20035;-81
2021/08/20 00:58:19;;;;;;;10.13;4.13;;;;;;;12.96;100.00;100363.63;4957053;28;20034;-81
2021/08/20 01:00:46;;;;;;;14.70;3.88;;;;;;;12.96;100.00;100364.50;4955268;28;20027;-81
2021/08/20 01:03:11;;;;;;;14.40;5.05;;;;;;;13.01;100.00;100361.72;4956603;28;20107;-81
2021/08/20 01:05:36;;;;;;;12.45;4.43;;;;;;;12.98;100.00;100365.28;4955480;29;20086;-81
2021/08/20 01:08:02;;;;;;;8.65;4.30;;;;;;;13.06;100.00;100365.06;4955449;29;20546;-81
2021/08/20 01:10:27;;;;;;;6.78;3.95;;;;;;;13.05;100.00;100368.53;4955391;28;20027;-81
2021/08/20 01:12:52;;;;;;;10.80;3.90;;;;;;;13.09;100.00;100360.59;4955258;29;20027;-81
2021/08/20 01:15:18;;;;;;;9.98;3.72;;;;;;;13.11;100.00;100357.94;4955294;29;20118;-81
2021/08/20 01:17:43;;;;;;;8.43;3.80;;;;;;;13.09;100.00;100358.00;4956663;28;20027;-81
2021/08/20 01:20:10;;;;;;;9.35;3.63;;;;;;;13.12;100.00;100354.44;4956300;28;20019;-81
2021/08/20 01:22:36;;;;;;;7.28;3.38;;;;;;;13.14;100.00;100356.06;4956223;28;20055;-81
2021/08/20 01:25:03;;;;;;;9.82;4.10;;;;;;;13.13;100.00;100354.38;4956118;29;20035;-81
2021/08/20 01:27:32;;;;;;;12.65;4.38;;;;;;;13.14;100.00;100352.63;4955020;29;20392;-81
2021/08/20 01:29:57;;;;;;;11.50;3.83;;;;;;;13.13;100.00;100349.16;4956253;28;20031;-81
2021/08/20 01:32:23;;;;;;;8.40;3.72;;;;;;;13.16;100.00;100349.97;4956361;28;20078;-81
2021/08/20 01:34:49;;;;;;;10.55;3.90;;;;;;;13.19;100.00;100347.28;4956192;28;20030;-81
2021/08/20 01:37:14;;;;;;;11.55;4.07;;;;;;;13.19;100.00;100349.88;4954841;29;20031;-81
2021/08/20 01:39:39;;;;;;;8.43;3.28;;;;;;;13.17;100.00;100344.72;4954725;28;20448;-81
2021/08/20 01:42:05;;;;;;;10.50;3.70;;;;;;;13.14;100.00;100353.47;4954740;29;20031;-81
2021/08/20 01:44:30;;;;;;;7.43;3.08;;;;;;;13.20;100.00;100346.38;4954805;29;20421;-81
2021/08/20 01:46:55;;;;;;;7.63;3.45;;;;;;;13.18;100.00;100349.03;4954602;29;20027;-81
2021/08/20 01:49:21;;;;;;;8.32;3.63;;;;;;;13.18;100.00;100348.16;4954912;28;20070;-81
2021/08/20 01:51:46;;;;;;;9.02;3.33;;;;;;;13.14;100.00;100345.66;4954271;28;20467;-81
2021/08/20 01:54:11;;;;;;;9.05;3.13;;;;;;;13.16;100.00;100329.16;4956038;28;20535;-81
2021/08/20 01:56:36;;;;;;;7.93;2.95;;;;;;;13.16;100.00;100335.22;4954485;29;20031;-81
2021/08/20 01:59:03;;;;;;;6.25;2.92;;;;;;;13.17;100.00;100336.91;4954344;28;20417;-81
2021/08/20 02:01:30;;;;;;;10.20;3.25;;;;;;;13.18;100.00;100345.56;4954490;29;20031;-81
2021/08/20 02:03:56;;;;;;;10.13;3.70;;;;;;;13.18;100.00;100342.94;4954424;29;20078;-81
2021/08/20 02:06:21;;;;;;;10.82;3.38;;;;;;;13.20;100.00;100351.56;4955903;28;20023;-81
2021/08/20 02:08:47;;;;;;;8.88;3.28;;;;;;;13.19;100.00;100348.13;4955526;28;20031;-81
2021/08/20 02:11:12;;;;;;;8.15;2.90;;;;;;;13.20;100.00;100347.22;4955521;28;20588;-81
2021/08/20 02:13:38;;;;;;;8.57;3.30;;;;;;;13.14;100.00;100345.66;4954304;29;20023;-81
2021/08/20 02:16:04;;;;;;;10.27;3.63;;;;;;;13.09;100.00;100344.97;4955522;28;20035;-80
2021/08/20 02:18:29;;;;;;;10.30;3.83;;;;;;;13.09;100.00;100347.56;4954220;29;20114;-80
2021/08/20 02:20:55;;;;;;;11.10;4.40;;;;;;;13.05;100.00;100342.50;4954039;28;20118;-81
2021/08/20 02:23:20;;;;;;;7.93;3.95;;;;;;;13.04;100.00;100341.66;4955419;28;20499;-81
2021/08/20 02:25:46;;;;;;;13.50;4.03;;;;;;;13.08;100.00;100342.41;4955285;28;20034;-81
2021/08/20 02:28:11;;;;;;;10.85;4.43;;;;;;;13.07;100.00;100349.38;4955400;28;20029;-81
2021/08/20 02:30:37;;;;;;;10.10;3.55;;;;;;;13.10;100.00;100349.28;4954019;28;20034;-81
2021/08/20 02:33:02;;;;;;;12.30;4.20;;;;;;;13.06;100.00;100350.28;4955160;28;20027;-81
2021/08/20 02:35:28;;;;;;;9.27;3.92;;;;;;;13.06;100.00;100354.63;4954006;29;20031;-81
2021/08/20 02:37:55;;;;;;;11.63;4.28;;;;;;;13.07;100.00;100348.53;4953860;29;20023;-81
2021/08/20 02:40:21;;;;;;;11.75;4.55;;;;;;;13.01;100.00;100346.13;4953822;28;20078;-81
2021/08/20 02:42:47;;;;;;;8.32;4.07;;;;;;;13.00;100.00;100344.41;4953994;29;20031;-81
2021/08/20 02:45:13;;;;;;;11.60;4.78;;;;;;;12.92;100.00;100342.03;4953904;29;20097;-81
2021/08/20 02:47:39;;;;;;;9.70;4.47;;;;;;;12.92;100.00;100346.41;4953837;29;20028;-81
2021/08/20 02:50:05;;;;;;;12.43;4.53;;;;;;;12.94;100.00;100344.63;4954991;28;20074;-82
2021/08/20 02:52:30;;;;;;;12.57;4.93;;;;;;;12.87;100.00;100343.94;4953854;29;20089;-82
2021/08/20 02:54:55;;;;;;;12.30;4.47;;;;;;;12.89;100.00;100342.97;4955510;28;20030;-82
2021/08/20 02:57:23;;;;;;;11.27;4.68;;;;;;;12.89;100.00;100337.78;4955128;28;20051;-81
2021/08/20 02:59:49;;;;;;;13.38;5.00;;;;;;;12.91;100.00;100340.34;4953595;28;20038;-81
2021/08/20 03:02:15;;;;;;;10.30;4.35;;;;;;;12.87;100.00;100342.19;4954920;28;20115;-81
2021/08/20 03:04:40;;;;;;;10.55;5.07;;;;;;;12.82;100.00;100330.22;4956119;28;20106;-81
2021/08/20 03:07:05;;;;;;;14.18;5.38;;;;;;;12.83;100.00;100330.16;4958737;28;20023;-81
2021/08/20 03:09:31;;;;;;;13.43;5.32;;;;;;;12.86;100.00;100331.81;4957643;28;20039;-81
2021/08/20 03:11:56;;;;;;;10.05;4.93;;;;;;;12.83;100.00;100331.91;4957394;29;20035;-81
2021/08/20 03:14:21;;;;;;;11.18;4.45;;;;;;;12.85;100.00;100335.34;4958783;28;20503;-81
2021/08/20 03:16:47;;;;;;;14.68;5.20;;;;;;;12.81;100.00;100333.72;4957465;29;20027;-81
2021/08/20 03:19:12;;;;;;;12.38;4.72;;;;;;;12.86;100.00;100331.81;4957349;28;20031;-81
2021/08/20 03:21:38;;;;;;;10.38;4.47;;;;;;;12.89;100.00;100334.31;4958937;28;20086;-81
2021/08/20 03:24:03;;;;;;;13.07;5.63;;;;;;;12.88;100.00;100336.09;4957298;29;20458;-81
2021/08/20 03:26:28;;;;;;;13.23;5.13;;;;;;;12.81;100.00;100333.72;4958458;28;20051;-81
2021/08/20 03:28:54;;;;;;;11.63;5.07;;;;;;;12.84;100.00;100338.84;4958730;28;20102;-81
2021/08/20 03:31:20;;;;;;;13.70;5.10;;;;;;;12.86;100.00;100337.88;4958403;28;20034;-81
2021/08/20 03:33:46;;;;;;;13.88;5.20;;;;;;;12.82;100.00;100345.84;4957150;29;20023;-81
2021/08/20 03:36:12;;;;;;;9.50;4.65;;;;;;;12.85;100.00;100343.13;4958292;28;20074;-81
2021/08/20 03:38:37;;;;;;;10.38;4.82;;;;;;;12.81;100.00;100342.38;4958547;28;20027;-81
2021/08/20 03:41:02;;;;;;;13.13;5.55;;;;;;;12.74;100.00;100347.81;4956911;28;20023;-81
2021/08/20 03:43:28;;;;;;;11.75;5.25;;;;;;;12.75;100.00;100344.34;4956917;29;20106;-81
2021/08/20 03:45:53;;;;;;;10.93;5.07;;;;;;;12.76;100.00;100344.28;4958191;28;20019;-81
2021/08/20 03:48:18;;;;;;;12.23;5.30;;;;;;;12.77;100.00;100343.38;4956879;29;20035;-81
2021/08/20 03:50:43;;;;;;;12.85;5.78;;;;;;;12.70;100.00;100331.44;4958028;28;20472;-81
2021/08/20 03:53:08;;;;;;;13.05;5.13;;;;;;;12.69;100.00;100340.16;4957947;28;20030;-82
2021/08/20 03:55:34;;;;;;;13.68;5.95;;;;;;;12.67;100.00;100336.75;4956823;29;20031;-81
2021/08/20 03:57:59;;;;;;;12.85;5.18;;;;;;;12.63;100.00;100341.19;4958339;28;20387;-81
2021/08/20 04:00:24;;;;;;;11.18;5.03;;;;;;;12.65;100.00;100336.81;4957932;28;20031;-81
2021/08/20 04:02:50;;;;;;;9.23;4.82;;;;;;;12.65;100.00;100343.72;4957758;28;20082;-81
2021/08/20 04:05:15;;;;;;;11.93;4.78;;;;;;;12.64;100.00;100342.03;4957978;28;20514;-81
2021/08/20 04:07:40;;;;;;;10.38;5.43;;;;;;;12.57;100.00;100341.38;4956487;29;20081;-81
2021/08/20 04:10:06;;;;;;;13.73;4.72;;;;;;;12.54;100.00;100346.66;4957717;28;20023;-81
2021/08/20 04:12:31;;;;;;;8.63;4.38;;;;;;;12.60;100.00;100343.88;4956538;29;20122;-81
2021/08/20 04:14:56;;;;;;;9.38;4.13;;;;;;;12.57;100.00;100348.34;4957454;28;20057;-81
2021/08/20 04:17:22;;;;;;;8.35;4.20;;;;;;;12.57;100.00;100356.13;4957697;28;20046;-81
2021/08/20 04:19:47;;;;;;;8.63;4.63;;;;;;;12.51;100.00;100345.91;4956452;28;20584;-81
2021/08/20 04:22:12;;;;;;;8.95;4.05;;;;;;;12.55;100.00;100355.31;4956221;29;20027;-81
2021/08/20 04:24:40;;;;;;;8.38;3.53;;;;;;;12.55;100.00;100358.78;4956314;29;20050;-81
2021/08/20 04:27:05;;;;;;;8.57;3.80;;;;;;;12.55;100.00;100358.78;4957607;28;20396;-81
2021/08/20 04:29:31;;;;;;;9.45;4.00;;;;;;;12.58;100.00;100361.28;4957387;28;20023;-81
2021/08/20 04:31:56;;;;;;;7.85;4.28;;;;;;;12.56;100.00;100359.63;4956310;29;20521;-81
2021/08/20 04:34:25;;;;;;;8.63;3.70;;;;;;;12.60;100.00;100356.91;4957844;28;20030;-81
2021/08/20 04:36:50;;;;;;;7.20;3.25;;;;;;;12.48;100.00;100362.47;4956411;29;20027;-82
2021/08/20 04:39:16;;;;;;;8.38;3.72;;;;;;;12.58;100.00;100357.84;4956007;28;20030;-81
2021/08/20 04:41:41;;;;;;;8.00;3.35;;;;;;;12.55;100.00;100355.31;4957373;28;20026;-82
2021/08/20 04:44:07;;;;;;;6.72;3.25;;;;;;;12.50;100.00;100355.47;4956105;29;20023;-82
2021/08/20 04:46:32;;;;;;;8.73;3.17;;;;;;;12.55;100.00;100357.94;4957319;28;20373;-82
2021/08/20 04:48:58;;;;;;;6.55;3.20;;;;;;;12.56;100.00;100351.81;4955867;28;20034;-82
2021/08/20 04:51:23;;;;;;;6.10;2.97;;;;;;;12.54;100.00;100359.69;4955896;29;20037;-81
2021/08/20 04:53:49;;;;;;;7.95;2.88;;;;;;;12.52;100.00;100361.47;4957007;28;20476;-81
2021/08/20 04:56:14;;;;;;;6.65;2.78;;;;;;;12.52;100.00;100361.47;4957108;28;20027;-81
2021/08/20 04:58:40;;;;;;;7.40;2.88;;;;;;;12.55;100.00;100358.78;4955691;29;20431;-81
2021/08/20 05:01:05;;;;;;;5.95;2.58;;;;;;;12.55;100.00;100358.78;4980670;23;20059;-80
2021/08/20 05:03:31;;;;;;;6.32;3.60;;;;;;;12.55;100.00;100369.19;4957420;28;20365;-79
2021/08/20 05:05:56;;;;;;;6.57;2.90;;;;;;;12.60;100.00;100375.09;4957868;28;20023;-79
2021/08/20 05:08:21;;;;;;;6.55;2.90;;;;;;;12.61;100.00;100373.34;4957876;28;20166;-79
2021/08/20 05:10:47;;;;;;;7.28;3.08;;;;;;;12.62;100.00;100375.06;4957527;28;20027;-80
2021/08/20 05:13:12;;;;;;;7.07;2.92;;;;;;;12.63;100.00;100374.16;4957470;28;20031;-79
2021/08/20 05:15:37;;;;;;;8.93;3.40;;;;;;;12.66;100.00;100371.47;4956503;29;20023;-79
2021/08/20 05:18:03;;;;;;;7.57;3.30;;;;;;;12.63;100.00;100372.41;4955981;29;20031;-79
2021/08/20 05:20:29;;;;;;;9.63;3.40;;;;;;;12.63;100.00;100362.00;4957221;28;20146;-79
2021/08/20 05:22:55;;;;;;;8.82;3.33;;;;;;;12.77;100.00;100374.59;4955941;29;20027;-79
2021/08/20 05:25:22;;;;;;;6.50;3.30;;;;;;;12.73;100.00;100379.94;4955901;28;20059;-79
2021/08/20 05:27:48;;;;;;;7.90;4.07;;;;;;;12.83;100.00;100373.56;4956156;28;20031;-79
2021/08/20 05:30:14;;;;;;;7.90;4.43;;;;;;;12.84;100.00;100385.69;4957190;28;20114;-79
2021/08/20 05:32:40;;;;;;;11.05;6.70;;;;;;;12.99;100.00;100372.22;4957302;28;20546;-79
2021/08/20 05:35:07;;;;;;;9.60;6.03;;;;;;;13.09;100.00;100372.78;4957209;28;20049;-79
2021/08/20 05:37:32;;;;;;;9.63;4.65;;;;;;;13.06;100.00;100381.53;4957899;28;20507;-79
2021/08/20 05:39:58;;;;;;;11.20;6.18;;;;;;;13.16;100.00;100381.22;4958127;28;20031;-79
2021/08/20 05:42:23;;;;;;;7.05;3.83;;;;;;;13.10;100.00;100380.50;4956863;29;20039;-79
2021/08/20 05:44:48;;;;;;;9.70;4.32;;;;;;;13.19;100.00;100381.97;4958205;28;20027;-79
2021/08/20 05:47:14;;;;;;;7.18;4.32;;;;;;;13.21;100.00;100384.53;4956681;29;20030;-79
2021/08/20 05:49:39;;;;;;;5.70;2.85;;;;;;;13.18;100.00;100390.72;4957137;28;20540;-80
2021/08/20 05:52:05;;;;;;;5.43;2.72;;;;;;;13.31;100.00;100388.59;4958549;28;20487;-79
2021/08/20 05:54:30;;;;;;;4.38;1.63;;;;;;;13.23;100.00;100394.00;4958040;28;20027;-79
2021/08/20 05:56:55;;;;;;;4.20;1.85;;;;;;;13.21;100.00;100398.41;4957510;29;20066;-79
2021/08/20 05:59:20;;;;;;;6.28;1.95;;;;;;;13.25;100.00;100399.19;4958135;28;20031;-80
2021/08/20 06:01:46;;;;;;;4.03;1.63;;;;;;;13.18;100.00;100400.25;4959388;28;20027;-80
2021/08/20 06:04:11;;;;;;;4.32;1.77;;;;;;;13.12;100.00;100398.72;4958384;28;20031;-80
2021/08/20 06:06:38;;;;;;;3.83;1.70;;;;;;;13.08;100.00;100405.78;4957224;29;20031;-79
2021/08/20 06:09:04;;;;;;;3.55;1.48;;;;;;;13.09;100.00;100401.41;4957941;28;20033;-81
2021/08/20 06:11:29;;;;;;;4.25;1.63;;;;;;;13.13;100.00;100398.66;4956607;29;20106;-80
2021/08/20 06:13:54;;;;;;;4.28;1.65;;;;;;;13.04;100.00;100411.09;4957170;29;20027;-79
2021/08/20 06:16:20;;;;;;;5.57;1.88;;;;;;;13.02;100.00;100411.16;4958015;28;20396;-80
2021/08/20 06:18:45;;;;;;;4.50;1.80;;;;;;;13.07;100.00;100414.47;4958055;28;20062;-79
2021/08/20 06:21:11;;;;;;;4.55;1.98;;;;;;;12.93;100.00;100411.44;4957711;28;20098;-79
2021/08/20 06:23:37;;;;;;;6.20;2.40;;;;;;;12.89;100.00;100415.88;4957895;28;20440;-80
2021/08/20 06:26:03;;;;;;;5.63;2.10;;;;;;;12.89;100.00;100420.22;4957512;28;20023;-79
2021/08/20 06:28:28;;;;;;;4.80;1.90;;;;;;;12.93;100.00;100424.47;4957177;29;20023;-79
2021/08/20 06:30:53;;;;;;;4.78;1.90;;;;;;;12.97;100.00;100420.00;4957370;28;20034;-79
2021/08/20 06:33:19;;;;;;;7.53;2.53;;;;;;;12.98;100.00;100412.13;4955904;29;20023;-79
2021/08/20 06:35:44;;;;;;;5.30;2.22;;;;;;;12.97;100.00;100412.19;4955949;29;20039;-79
2021/08/20 06:38:09;;;;;;;7.25;2.22;;;;;;;13.06;100.00;100411.91;4956248;28;20026;-79
2021/08/20 06:40:35;;;;;;;5.75;2.22;;;;;;;13.19;100.00;100409.78;4957392;28;20154;-79
2021/08/20 06:43:00;;;;;;;7.40;2.53;;;;;;;13.32;100.00;100411.13;4957297;28;20476;-79
2021/08/20 06:45:25;;;;;;;6.00;2.38;;;;;;;13.38;100.00;100416.13;4955154;29;20027;-79
2021/08/20 06:47:51;;;;;;;6.70;1.95;;;;;;;13.32;100.00;100414.56;4956627;28;20027;-79
2021/08/20 06:50:17;;;;;;;5.45;2.40;;;;;;;13.19;100.00;100420.19;4955634;28;20542;-79
2021/08/20 06:52:42;;;;;;;5.93;2.38;;;;;;;13.20;100.00;100421.91;4955024;29;20035;-79
2021/08/20 06:55:08;;;;;;;5.10;2.28;;;;;;;13.35;100.00;100429.25;4954834;29;20027;-79
2021/08/20 06:57:33;;;;;;;6.10;2.15;;;;;;;13.45;100.00;100430.66;4955878;28;20031;-79
2021/08/20 06:59:58;;;;;;;5.78;2.42;;;;;;;13.34;100.00;100428.41;4954658;28;20035;-79
2021/08/20 07:02:23;;;;;;;6.65;2.30;;;;;;;13.38;100.00;100429.16;4956230;28;20034;-79
2021/08/20 07:04:50;;;;;;;4.88;2.28;;;;;;;13.46;100.00;100428.94;4956271;28;20023;-79
2021/08/20 07:07:15;;;;;;;5.28;2.45;;;;;;;13.52;100.00;100431.34;4956454;28;20040;-80
2021/08/20 07:09:41;;;;;;;5.20;2.30;;;;;;;13.52;100.00;100437.41;4956940;28;20027;-79
2021/08/20 07:12:06;;;;;;;5.13;2.10;;;;;;;13.39;100.00;100440.44;4955997;28;20397;-80
2021/08/20 07:14:32;;;;;;;6.55;2.63;;;;;;;13.46;100.00;100441.97;4955400;28;20031;-79
2021/08/20 07:16:57;;;;;;;7.05;2.30;;;;;;;13.42;100.00;100441.19;4954105;29;20050;-79
2021/08/20 07:19:23;;;;;;;4.78;2.03;;;;;;;13.25;100.00;100441.72;4955565;28;20154;-79
2021/08/20 07:21:48;;;;;;;8.20;2.67;;;;;;;13.30;100.00;100441.56;4955385;28;20023;-79
2021/08/20 07:24:13;;;;;;;6.65;2.20;;;;;;;13.31;100.00;100449.34;4955850;28;20024;-79
2021/08/20 07:26:39;;;;;;;5.38;2.33;;;;;;;13.17;100.00;100442.81;4954060;29;20535;-80
2021/08/20 07:29:04;;;;;;;6.32;2.17;;;;;;;13.25;100.00;100438.28;4954981;28;20031;-79
2021/08/20 07:31:30;;;;;;;5.45;2.33;;;;;;;13.34;100.00;100445.81;4955567;28;20440;-79
2021/08/20 07:33:55;;;;;;;5.88;2.40;;;;;;;13.29;100.00;100450.28;4954055;29;20028;-79
2021/08/20 07:36:20;;;;;;;10.05;2.75;;;;;;;13.40;100.00;100449.97;4953977;29;20023;-79
2021/08/20 07:38:46;;;;;;;5.97;2.95;;;;;;;13.42;100.00;100446.38;4955130;28;20035;-79
2021/08/20 07:41:11;;;;;;;7.13;2.58;;;;;;;13.44;100.00;100449.81;4953845;28;20395;-79
2021/08/20 07:43:36;;;;;;;9.52;2.65;;;;;;;13.56;100.00;100449.41;4953752;29;20015;-79
2021/08/20 07:46:01;;;;;;;6.63;2.65;;;;;;;13.68;100.00;100448.16;4953951;29;20082;-79
2021/08/20 07:48:27;;;;;;;6.35;3.10;;;;;;;13.76;100.00;100450.50;4955261;28;20035;-79
2021/08/20 07:50:52;;;;;;;7.05;3.10;;;;;;;13.95;100.00;100453.38;4957650;28;20055;-79
2021/08/20 07:53:17;;;;;;;7.93;3.05;;;;;;;14.17;100.00;100449.13;4957199;29;20031;-79
2021/08/20 07:55:43;;;;;;;6.43;2.97;;;;;;;14.28;100.00;100462.66;4957418;29;20070;-79
2021/08/20 07:58:09;;;;;;;5.85;3.00;;;;;;;14.62;100.00;100461.44;4957103;29;20031;-80
2021/08/20 08:00:34;;;;;;;7.10;3.47;;;;;;;14.95;100.00;100467.19;4958437;28;20035;-80
2021/08/20 08:03:00;;;;;;;9.38;3.30;;;;;;;15.01;100.00;100466.09;4958458;28;20086;-80
2021/08/20 08:05:27;;;;;;;6.35;3.45;;;;;;;14.69;100.00;100465.56;4958269;28;20495;-80
2021/08/20 08:07:54;;;;;;;8.57;3.65;;;;;;;14.50;100.00;100454.91;4957131;29;20035;-80
2021/08/20 08:10:21;;;;;;;6.25;3.47;;;;;;;14.48;100.00;100461.94;4956839;28;20130;-80
2021/08/20 08:12:47;;;;;;;8.55;4.05;;;;;;;14.66;100.00;100459.59;4958394;28;20028;-80
2021/08/20 08:15:13;;;;;;;11.48;5.70;;;;;;;14.96;100.00;100468.03;4958302;28;20129;-80
2021/08/20 08:17:39;;;;;;;8.73;5.22;;;;;;;15.04;100.00;100476.44;4958024;28;20400;-79
2021/08/20 08:20:07;;;;;;;11.73;5.72;;;;;;;15.16;100.00;100470.75;4958144;28;20403;-80
2021/08/20 08:22:32;;;;;;;11.43;5.60;;;;;;;14.86;100.00;100471.91;4958536;28;20028;-79
2021/08/20 08:24:57;;;;;;;11.45;5.80;;;;;;;14.82;100.00;100471.19;4957005;29;20035;-80
2021/08/20 08:27:23;;;;;;;9.48;5.93;;;;;;;14.89;100.00;100462.19;4958229;28;20507;-79
2021/08/20 08:29:48;;;;;;;12.55;6.72;;;;;;;14.95;100.00;100469.78;4958123;28;20035;-79
2021/08/20 08:32:13;;;;;;;13.30;6.88;;;;;;;15.19;100.00;100468.00;4956855;29;20492;-79
2021/08/20 08:34:39;;;;;;;13.13;7.68;;;;;;;15.31;100.00;100474.53;4958075;28;20086;-79
2021/08/20 08:37:05;;;;;;;13.05;7.57;;;;;;;15.20;100.00;100477.53;4956581;29;20062;-80
2021/08/20 08:39:32;;;;;;;15.70;8.20;;;;;;;15.16;100.00;100482.97;4957907;28;20373;-79
2021/08/20 08:41:57;;;;;;;14.60;7.65;;;;;;;15.11;100.00;100477.06;4957843;28;20102;-79
2021/08/20 08:44:22;;;;;;;12.57;8.52;;;;;;;15.26;100.00;100481.69;4957420;29;20496;-79
2021/08/20 08:46:49;;;;;;;12.02;8.30;;;;;;;15.06;100.00;100472.00;4957727;28;20027;-79
2021/08/20 08:49:20;;;;;;;11.60;7.78;;;;;;;16.75;100.00;100459.78;4956010;28;20028;-79
2021/08/20 08:51:45;;;;;;;12.65;8.60;;;;;;;17.54;100.00;100472.72;4957669;28;20046;-80
2021/08/20 08:54:12;;;;;;;12.90;9.18;;;;;;;16.52;100.00;100466.03;4957663;28;20556;-79
2021/08/20 08:56:42;;;;;;;14.98;8.93;;;;;;;16.56;100.00;100475.44;4957879;28;20023;-79
2021/08/20 08:59:07;;;;;;;13.35;9.07;;;;;;;17.28;100.00;100479.22;4957140;28;20503;-79
2021/08/20 09:01:36;;;;;;;15.35;8.75;;;;;;;17.54;100.00;100478.78;4955026;28;20039;-79
2021/08/20 09:04:16;;;;;;;17.88;9.63;;;;;;;18.01;100.00;100480.91;4956102;29;20388;-79
2021/08/20 09:06:48;;;;;;;18.02;9.40;;;;;;;17.57;100.00;100481.28;4956054;29;20031;-79
2021/08/20 09:09:15;;;;;;;18.17;10.68;;;;;;;16.88;100.00;100488.91;4956008;28;20119;-79
2021/08/20 09:11:42;;;;;;;15.65;10.25;;;;;;;16.60;100.00;100489.28;4957345;28;20115;-79
2021/08/20 09:14:09;;;;;;;17.35;10.77;;;;;;;16.36;100.00;100485.97;4955766;29;20034;-79
2021/08/20 09:16:40;;;;;;;14.57;10.40;;;;;;;16.24;100.00;100485.56;4957454;28;20027;-79
2021/08/20 09:19:15;;;;;;;14.45;10.48;;;;;;;16.33;100.00;100482.53;4957385;28;20098;-79
2021/08/20 09:21:43;;;;;;;16.77;11.32;;;;;;;16.10;100.00;100482.66;4956050;28;20027;-79
2021/08/20 09:24:35;;;;;;;17.98;12.20;;;;;;;15.88;100.00;100483.56;4957160;28;20107;-80
2021/08/20 09:27:22;;;;;;;15.23;10.57;;;;;;;15.88;100.00;100482.72;4957810;28;20030;-80
2021/08/20 09:30:07;;;;;;;15.70;10.63;;;;;;;16.01;100.00;100483.06;4955698;29;20023;-80
2021/08/20 09:32:45;;;;;;;13.80;9.98;;;;;;;16.06;100.00;100488.97;4955793;28;20488;-80
2021/08/20 09:35:11;;;;;;;15.55;9.30;;;;;;;16.17;100.00;100475.44;4956213;29;20432;-80
2021/08/20 09:37:37;;;;;;;14.23;9.18;;;;;;;16.50;100.00;100483.56;4956922;28;20038;-79
2021/08/20 09:40:07;;;;;;;13.27;9.55;;;;;;;16.47;100.00;100483.69;4957083;28;20031;-80
2021/08/20 09:42:34;;;;;;;15.77;10.00;;;;;;;16.46;100.00;100482.00;4957386;28;20031;-80
2021/08/20 09:45:20;;;;;;;15.65;10.07;;;;;;;16.35;100.00;100479.88;4955930;29;20023;-80
2021/08/20 09:47:48;;;;;;;13.63;9.35;;;;;;;16.37;100.00;100479.78;4956975;28;20058;-80
2021/08/20 09:50:14;;;;;;;15.88;10.95;;;;;;;16.20;100.00;100481.38;4956985;28;20023;-80
2021/08/20 09:52:39;;;;;;;15.35;10.07;;;;;;;15.99;100.00;100490.97;4955682;29;20448;-80
2021/08/20 09:55:05;;;;;;;17.63;10.50;;;;;;;15.76;100.00;100489.31;4955070;29;20403;-80
2021/08/20 09:57:32;;;;;;;17.17;11.38;;;;;;;15.71;100.00;100487.81;4955408;29;20023;-80
2021/08/20 09:59:58;;;;;;;17.10;10.63;;;;;;;15.46;100.00;100493.16;4956007;28;20118;-80
2021/08/20 10:02:28;;;;;;;15.38;10.65;;;;;;;15.29;100.00;100502.47;4954810;29;20114;-80
2021/08/20 10:04:55;;;;;;;16.02;10.93;;;;;;;15.64;100.00;100497.63;4956516;28;20054;-80
2021/08/20 10:07:22;;;;;;;19.70;10.80;;;;;;;16.06;100.00;100497.66;4954923;29;20113;-80
2021/08/20 10:09:48;;;;;;;16.23;11.18;;;;;;;16.45;100.00;100498.66;4955098;28;20118;-80
2021/08/20 10:12:22;;;;;;;15.75;10.60;;;;;;;16.71;100.00;100493.09;4956096;28;20396;-80
2021/08/20 10:14:49;;;;;;;15.65;10.98;;;;;;;17.20;100.00;100490.88;4954669;29;20035;-80
2021/08/20 10:17:16;;;;;;;16.23;12.05;;;;;;;17.92;100.00;100491.84;4954885;29;20027;-80
2021/08/20 10:19:42;;;;;;;14.07;10.70;;;;;;;19.51;100.00;100490.44;4955780;28;20027;-80
2021/08/20 10:22:08;;;;;;;15.88;11.13;;;;;;;19.94;100.00;100480.94;4956044;28;20102;-80
2021/08/20 10:24:33;;;;;;;17.23;10.93;;;;;;;21.46;100.00;100481.34;4955867;28;20038;-80
2021/08/20 10:27:02;;;;;;;15.32;11.52;;;;;;;19.73;100.00;100479.56;4955968;28;20023;-80
2021/08/20 10:29:30;;;;;;;16.98;10.18;;;;;;;18.93;100.00;100486.59;4955537;28;20031;-80
2021/08/20 10:31:57;;;;;;;15.60;11.25;;;;;;;21.01;100.00;100489.44;4955907;28;20484;-80
2021/08/20 10:34:31;;;;;;;15.75;10.98;;;;;;;21.53;100.00;100491.41;4955739;28;20023;-80
2021/08/20 10:37:06;;;;;;;15.57;10.77;;;;;;;21.37;100.00;100494.22;4955754;28;20054;-80
2021/08/20 10:39:32;;;;;;;13.57;9.32;;;;;;;21.00;100.00;100495.66;4954440;29;20038;-80
2021/08/20 10:42:09;;;;;;;12.35;9.23;;;;;;;21.12;100.00;100491.38;4955731;28;20031;-80
2021/08/20 10:44:42;;;;;;;13.90;9.18;;;;;;;19.38;100.00;100492.06;4956797;28;20023;-80
2021/08/20 10:47:08;;;;;;;12.20;9.35;;;;;;;19.05;100.00;100501.72;4955972;28;20517;-80
2021/08/20 10:49:42;;;;;;;16.45;9.35;;;;;;;18.38;100.00;100493.00;4956090;28;20042;-79
2021/08/20 10:52:08;;;;;;;13.00;9.87;;;;;;;18.62;100.00;100501.34;4956223;28;20090;-80
2021/08/20 10:54:42;;;;;;;14.85;10.25;;;;;;;18.22;100.00;100504.34;4955731;28;20031;-80
2021/08/20 10:57:36;;;;;;;15.63;9.65;;;;;;;18.18;100.00;100499.25;4954772;29;20028;-79
2021/08/20 11:00:04;;;;;;;16.20;10.45;;;;;;;18.53;100.00;100498.34;4978774;23;20130;-80
2021/08/20 11:02:29;;;;;;;12.93;9.68;;;;;;;18.79;100.00;100504.91;4956112;28;20027;-80
2021/08/20 11:04:58;;;;;;;14.43;9.70;;;;;;;18.95;100.00;100503.16;4956006;28;20086;-80
2021/08/20 11:07:39;;;;;;;12.52;9.32;;;;;;;18.94;100.00;100498.84;4955778;28;20114;-81
2021/08/20 11:10:07;;;;;;;14.95;9.20;;;;;;;19.36;100.00;100502.66;4954211;28;20118;-80